Time;durP1;ratioP1;P1;durP2;ratioP2;P2;SDS_P1;SDS_P2;PMS_P1;PMS_P2;Temp;Humidity;BMP_temperature;BMP_pressure;BME280_temperature;BME280_humidity;BME280_pressure;Samples;Min_cycle;Max_cycle;Signal;HPM_P1;HPM_P2
2023/09/23 00:00:07;;;;;;;9.80;6.47;;;13.20;99.90;;;;;;5010881;28;20045;-68
2023/09/23 00:02:33;;;;;;;8.57;6.78;;;13.30;99.90;;;;;;5013148;28;20504;-68
2023/09/23 00:04:59;;;;;;;10.77;7.20;;;13.20;99.90;;;;;;5028390;28;20041;-68
2023/09/23 00:07:25;;;;;;;11.73;7.03;;;13.20;99.90;;;;;;5028947;28;20120;-68
2023/09/23 00:09:51;;;;;;;9.18;7.38;;;13.30;99.90;;;;;;5013932;28;20128;-68
2023/09/23 00:12:16;;;;;;;10.25;7.75;;;13.20;99.90;;;;;;5014141;28;20052;-68
2023/09/23 00:14:42;;;;;;;11.73;7.55;;;13.20;99.90;;;;;;5023175;28;20121;-68
2023/09/23 00:17:08;;;;;;;10.85;7.38;;;13.20;99.90;;;;;;5010598;28;20128;-68
2023/09/23 00:19:34;;;;;;;9.57;7.35;;;13.20;99.90;;;;;;5013623;28;20045;-68
2023/09/23 00:22:00;;;;;;;11.10;7.75;;;13.20;99.90;;;;;;5020565;28;20042;-68
2023/09/23 00:24:26;;;;;;;11.90;8.20;;;13.10;99.90;;;;;;5008189;28;20077;-68
2023/09/23 00:26:58;;;;;;;10.55;7.80;;;13.10;99.90;;;;;;5015168;28;20045;-68
2023/09/23 00:29:26;;;;;;;11.15;8.18;;;13.10;99.90;;;;;;5011802;28;20476;-68
2023/09/23 00:31:54;;;;;;;10.02;7.75;;;13.10;99.90;;;;;;5000950;28;20129;-68
2023/09/23 00:34:20;;;;;;;10.77;7.85;;;13.10;99.90;;;;;;5030087;28;20045;-67
2023/09/23 00:36:45;;;;;;;10.35;7.80;;;13.10;99.90;;;;;;5031097;28;20048;-68
2023/09/23 00:39:11;;;;;;;9.98;7.30;;;13.10;99.90;;;;;;5026023;28;20060;-68
2023/09/23 00:41:36;;;;;;;9.00;6.63;;;13.10;99.90;;;;;;5013519;28;20042;-68
2023/09/23 00:44:03;;;;;;;8.35;6.43;;;13.00;99.90;;;;;;5030643;28;20042;-68
2023/09/23 00:46:28;;;;;;;9.35;6.43;;;13.00;99.90;;;;;;5009408;28;20400;-68
2023/09/23 00:48:54;;;;;;;9.15;5.80;;;13.00;99.90;;;;;;5024677;28;20045;-68
2023/09/23 00:51:21;;;;;;;7.25;5.25;;;13.00;99.90;;;;;;5012331;28;20045;-67
2023/09/23 00:53:47;;;;;;;6.47;4.88;;;12.90;99.90;;;;;;5028274;28;20065;-68
2023/09/23 00:56:15;;;;;;;7.15;5.00;;;12.90;99.90;;;;;;5028708;28;20160;-68
2023/09/23 00:58:42;;;;;;;8.10;4.43;;;12.80;99.90;;;;;;5013112;28;20049;-68
2023/09/23 01:01:08;;;;;;;4.63;3.40;;;12.80;99.90;;;;;;5013647;28;20056;-68
2023/09/23 01:03:39;;;;;;;5.72;3.40;;;12.70;99.90;;;;;;5009645;28;20167;-69
2023/09/23 01:06:14;;;;;;;5.38;3.40;;;12.70;99.90;;;;;;5012215;28;20057;-68
2023/09/23 01:08:42;;;;;;;4.25;3.13;;;12.70;99.90;;;;;;5031149;28;20045;-68
2023/09/23 01:11:08;;;;;;;4.15;3.00;;;12.70;99.90;;;;;;5019888;28;20131;-68
2023/09/23 01:13:34;;;;;;;3.25;2.55;;;12.60;99.90;;;;;;5021255;28;20527;-68
2023/09/23 01:16:02;;;;;;;3.65;2.70;;;12.60;99.90;;;;;;5034262;28;20037;-68
2023/09/23 01:18:28;;;;;;;3.22;2.25;;;12.60;99.90;;;;;;5034664;28;20037;-68
2023/09/23 01:21:00;;;;;;;3.28;2.40;;;12.60;99.90;;;;;;5031330;28;20060;-68
2023/09/23 01:23:26;;;;;;;5.10;2.70;;;12.60;99.90;;;;;;5016638;28;20096;-68
2023/09/23 01:25:51;;;;;;;3.60;2.63;;;12.60;99.90;;;;;;5034256;28;20037;-68
2023/09/23 01:28:18;;;;;;;5.97;3.53;;;12.50;99.90;;;;;;5014706;28;20056;-68
2023/09/23 01:30:44;;;;;;;5.68;3.88;;;12.50;99.90;;;;;;5020719;28;20046;-68
2023/09/23 01:33:10;;;;;;;4.93;3.90;;;12.50;99.90;;;;;;5031569;28;20033;-68
2023/09/23 01:35:36;;;;;;;6.55;4.47;;;12.50;99.90;;;;;;5034357;28;20059;-68
2023/09/23 01:38:06;;;;;;;6.80;5.22;;;12.50;99.90;;;;;;5034332;28;20034;-67
2023/09/23 01:40:32;;;;;;;8.68;5.63;;;12.50;99.90;;;;;;5011619;28;20567;-68
2023/09/23 01:42:58;;;;;;;8.23;6.22;;;12.50;99.90;;;;;;5030234;28;20045;-68
2023/09/23 01:45:25;;;;;;;8.85;6.82;;;12.60;99.90;;;;;;5026857;28;20550;-68
2023/09/23 01:47:52;;;;;;;10.05;6.68;;;12.60;99.90;;;;;;5028585;28;20041;-68
2023/09/23 01:50:18;;;;;;;8.52;5.85;;;12.50;99.90;;;;;;5024520;28;20041;-68
2023/09/23 01:52:45;;;;;;;8.73;6.45;;;12.60;99.90;;;;;;5034385;28;20038;-68
2023/09/23 01:55:12;;;;;;;11.00;6.72;;;12.60;99.90;;;;;;5050382;23;20046;-70
2023/09/23 01:57:38;;;;;;;9.80;7.15;;;12.60;99.90;;;;;;4988586;28;20076;-70
2023/09/23 02:00:06;;;;;;;9.85;6.85;;;12.60;99.90;;;;;;4987704;28;20050;-70
2023/09/23 02:02:32;;;;;;;11.32;7.15;;;12.60;99.90;;;;;;4985828;28;20423;-70
2023/09/23 02:04:57;;;;;;;9.10;6.63;;;12.60;99.90;;;;;;5006021;28;20038;-70
2023/09/23 02:07:23;;;;;;;9.70;6.43;;;12.60;99.90;;;;;;4987872;28;20091;-70
2023/09/23 02:09:49;;;;;;;9.25;6.13;;;12.60;99.90;;;;;;5015701;28;20168;-70
2023/09/23 02:12:14;;;;;;;10.00;6.75;;;12.60;99.90;;;;;;4985045;28;20054;-70
2023/09/23 02:14:40;;;;;;;8.98;6.18;;;12.60;99.90;;;;;;5016183;28;20038;-70
2023/09/23 02:17:06;;;;;;;8.32;6.22;;;12.60;99.90;;;;;;5013365;28;20257;-70
2023/09/23 02:19:31;;;;;;;9.77;5.65;;;12.60;99.90;;;;;;5007699;28;20046;-70
2023/09/23 02:21:57;;;;;;;9.70;6.22;;;12.50;99.90;;;;;;4984235;28;20365;-70
2023/09/23 02:24:23;;;;;;;8.95;6.18;;;12.40;99.90;;;;;;4988251;28;20408;-70
2023/09/23 02:26:51;;;;;;;9.48;5.78;;;12.40;99.90;;;;;;4987054;28;20404;-70
2023/09/23 02:29:17;;;;;;;7.63;5.72;;;12.30;99.90;;;;;;5005311;28;20049;-70
2023/09/23 02:31:47;;;;;;;8.88;5.43;;;12.20;99.90;;;;;;4987461;28;20054;-70
2023/09/23 02:34:16;;;;;;;10.48;5.80;;;12.10;99.90;;;;;;5002346;28;20108;-70
2023/09/23 02:36:43;;;;;;;10.82;5.20;;;12.00;99.90;;;;;;4983034;28;20496;-71
2023/09/23 02:39:15;;;;;;;8.25;5.28;;;12.00;99.90;;;;;;4993720;28;20500;-70
2023/09/23 02:41:41;;;;;;;8.40;5.43;;;11.90;99.90;;;;;;4989958;28;20080;-70
2023/09/23 02:44:07;;;;;;;8.32;5.03;;;11.80;99.90;;;;;;5008748;28;20099;-70
2023/09/23 02:46:34;;;;;;;8.07;5.50;;;11.70;99.90;;;;;;4987322;28;20136;-70
2023/09/23 02:48:59;;;;;;;8.02;5.47;;;11.70;99.90;;;;;;4991912;28;20042;-68
2023/09/23 02:51:25;;;;;;;9.30;5.38;;;11.60;99.90;;;;;;4995851;28;20048;-68
2023/09/23 02:53:50;;;;;;;8.73;5.70;;;11.60;99.90;;;;;;4991425;28;20050;-68
2023/09/23 02:56:18;;;;;;;9.63;5.95;;;11.50;99.90;;;;;;4985236;28;20046;-68
2023/09/23 02:58:44;;;;;;;7.85;5.53;;;11.50;99.90;;;;;;4975940;28;20461;-68
2023/09/23 03:01:14;;;;;;;10.27;5.78;;;11.50;99.90;;;;;;4991398;28;20408;-68
2023/09/23 03:03:41;;;;;;;10.88;6.97;;;11.50;99.90;;;;;;4984145;28;20439;-68
2023/09/23 03:06:10;;;;;;;11.77;7.65;;;11.50;99.90;;;;;;4997595;28;20067;-68
2023/09/23 03:08:39;;;;;;;11.43;7.28;;;11.50;99.90;;;;;;4992229;28;20092;-68
2023/09/23 03:11:09;;;;;;;12.82;7.90;;;11.50;99.90;;;;;;4978089;28;20134;-68
2023/09/23 03:13:37;;;;;;;14.07;8.03;;;11.50;99.90;;;;;;4983660;28;20405;-68
2023/09/23 03:16:11;;;;;;;11.80;7.85;;;11.50;99.90;;;;;;4990903;28;20448;-68
2023/09/23 03:18:41;;;;;;;13.85;8.98;;;11.50;99.90;;;;;;4994787;28;20129;-68
2023/09/23 03:21:08;;;;;;;13.43;8.38;;;11.50;99.90;;;;;;4987065;28;20077;-68
2023/09/23 03:23:40;;;;;;;13.18;8.55;;;11.50;99.90;;;;;;4978977;28;20053;-68
2023/09/23 03:26:08;;;;;;;14.50;9.07;;;11.40;99.90;;;;;;4991941;28;20117;-68
2023/09/23 03:28:39;;;;;;;13.75;9.35;;;11.50;99.90;;;;;;5000388;28;20048;-68
2023/09/23 03:31:07;;;;;;;15.45;9.90;;;11.40;99.90;;;;;;4978303;28;20067;-68
2023/09/23 03:33:32;;;;;;;19.73;10.18;;;11.40;99.90;;;;;;4973314;28;20043;-68
2023/09/23 03:35:58;;;;;;;14.35;9.00;;;11.40;99.90;;;;;;4996787;28;20104;-68
2023/09/23 03:38:24;;;;;;;15.23;10.32;;;11.40;99.90;;;;;;5002456;28;20048;-68
2023/09/23 03:41:02;;;;;;;16.65;10.88;;;11.40;99.90;;;;;;5012689;28;20042;-67
2023/09/23 03:43:29;;;;;;;15.98;10.63;;;11.40;99.90;;;;;;4983573;28;20050;-68
2023/09/23 03:45:55;;;;;;;15.55;10.93;;;11.30;99.90;;;;;;4983447;28;20081;-68
2023/09/23 03:48:21;;;;;;;18.10;10.45;;;11.30;99.90;;;;;;4992803;28;20109;-68
2023/09/23 03:50:53;;;;;;;17.08;11.55;;;11.30;99.90;;;;;;4989432;28;20141;-68
2023/09/23 03:53:23;;;;;;;17.30;11.13;;;11.20;99.90;;;;;;4981766;28;20495;-68
2023/09/23 03:55:52;;;;;;;17.70;11.20;;;11.20;99.90;;;;;;4985822;28;20057;-68
2023/09/23 03:58:17;;;;;;;19.52;12.40;;;11.10;99.90;;;;;;4987659;28;20038;-67
2023/09/23 04:00:44;;;;;;;18.80;11.65;;;11.10;99.90;;;;;;4994961;28;20064;-67
2023/09/23 04:03:10;;;;;;;18.20;11.15;;;11.10;99.90;;;;;;5000413;28;20113;-67
2023/09/23 04:05:36;;;;;;;20.40;11.60;;;11.10;99.90;;;;;;4993632;28;20084;-68
2023/09/23 04:08:02;;;;;;;19.75;12.23;;;11.10;99.90;;;;;;4984424;28;20073;-67
2023/09/23 04:10:28;;;;;;;20.20;11.90;;;11.10;99.90;;;;;;4990519;28;20125;-68
2023/09/23 04:12:56;;;;;;;19.83;11.75;;;11.10;99.90;;;;;;4995874;28;20046;-68
2023/09/23 04:15:24;;;;;;;19.92;12.63;;;11.10;99.90;;;;;;4973401;28;20136;-68
2023/09/23 04:17:50;;;;;;;21.27;11.98;;;11.00;99.90;;;;;;4978135;28;20116;-68
2023/09/23 04:20:15;;;;;;;19.90;11.52;;;11.00;99.90;;;;;;5003324;28;20121;-68
2023/09/23 04:22:42;;;;;;;21.98;12.63;;;11.00;99.90;;;;;;5011384;28;20141;-68
2023/09/23 04:25:08;;;;;;;20.50;11.85;;;11.00;99.90;;;;;;4973840;28;20054;-69
2023/09/23 04:27:36;;;;;;;23.27;12.63;;;10.90;99.90;;;;;;4986595;28;20050;-69
2023/09/23 04:30:06;;;;;;;20.30;11.48;;;11.00;99.90;;;;;;4999569;28;20046;-68
2023/09/23 04:32:32;;;;;;;22.02;12.32;;;11.00;99.90;;;;;;4999483;28;20536;-69
2023/09/23 04:34:57;;;;;;;20.33;12.18;;;11.00;99.90;;;;;;4995566;28;20130;-68
2023/09/23 04:37:27;;;;;;;20.50;11.95;;;11.00;99.90;;;;;;4982137;28;20030;-69
2023/09/23 04:39:54;;;;;;;23.13;12.05;;;11.00;99.90;;;;;;4980572;28;20100;-69
2023/09/23 04:42:21;;;;;;;25.02;12.20;;;11.00;99.90;;;;;;4997251;28;20042;-69
2023/09/23 04:44:47;;;;;;;22.67;12.23;;;11.10;99.90;;;;;;5005590;28;20504;-69
2023/09/23 04:47:14;;;;;;;24.42;12.70;;;11.10;99.90;;;;;;5010850;28;20128;-69
2023/09/23 04:49:40;;;;;;;23.75;12.63;;;11.10;99.90;;;;;;4992832;28;20624;-69
2023/09/23 04:52:06;;;;;;;26.40;13.10;;;11.20;99.90;;;;;;5014174;28;20034;-69
2023/09/23 04:54:31;;;;;;;26.48;14.15;;;11.20;99.90;;;;;;4990321;28;20044;-69
2023/09/23 04:56:57;;;;;;;26.42;13.50;;;11.20;99.90;;;;;;4986521;28;20096;-69
2023/09/23 04:59:23;;;;;;;33.13;15.13;;;11.20;99.90;;;;;;5001007;28;20030;-68
2023/09/23 05:01:49;;;;;;;32.33;15.27;;;11.30;99.90;;;;;;4990770;28;20049;-68
2023/09/23 05:04:14;;;;;;;30.65;16.05;;;11.30;99.90;;;;;;4981370;28;20452;-69
2023/09/23 05:06:40;;;;;;;35.20;18.73;;;11.30;99.90;;;;;;4977807;28;20041;-69
2023/09/23 05:09:07;;;;;;;30.40;16.98;;;11.40;99.90;;;;;;5003433;28;20449;-69
2023/09/23 05:11:33;;;;;;;37.53;19.13;;;11.40;99.90;;;;;;4976578;28;20085;-69
2023/09/23 05:13:59;;;;;;;39.67;18.95;;;11.40;99.90;;;;;;4976163;28;20066;-69
2023/09/23 05:16:24;;;;;;;38.63;18.63;;;11.40;99.90;;;;;;4975082;28;20037;-69
2023/09/23 05:18:50;;;;;;;36.10;18.15;;;11.50;99.90;;;;;;5001690;28;20031;-69
2023/09/23 05:21:18;;;;;;;45.63;21.10;;;11.50;99.90;;;;;;4995360;28;20089;-69
2023/09/23 05:23:48;;;;;;;40.92;18.95;;;11.50;99.90;;;;;;5008454;28;20077;-69
2023/09/23 05:26:15;;;;;;;41.22;19.83;;;11.50;99.90;;;;;;4988710;28;20050;-69
2023/09/23 05:28:44;;;;;;;48.50;21.95;;;11.50;99.90;;;;;;5014763;28;20052;-69
2023/09/23 05:31:13;;;;;;;40.75;20.33;;;11.60;99.90;;;;;;4973552;28;20434;-69
2023/09/23 05:33:40;;;;;;;42.17;21.27;;;11.60;99.90;;;;;;4990213;28;20041;-69
2023/09/23 05:36:06;;;;;;;46.10;21.13;;;11.60;99.90;;;;;;5005677;28;20035;-69
2023/09/23 05:38:36;;;;;;;40.33;20.15;;;11.60;99.90;;;;;;4984488;28;20407;-69
2023/09/23 05:41:02;;;;;;;44.03;22.77;;;11.60;99.90;;;;;;4981984;28;20080;-68
2023/09/23 05:43:27;;;;;;;45.63;23.55;;;11.70;99.90;;;;;;4984854;28;20053;-69
2023/09/23 05:45:53;;;;;;;47.53;22.55;;;11.70;99.90;;;;;;4958764;28;20038;-69
2023/09/23 05:48:18;;;;;;;42.88;21.45;;;11.70;99.90;;;;;;4999998;28;20057;-69
2023/09/23 05:50:44;;;;;;;49.35;23.45;;;11.70;99.90;;;;;;4988448;28;20057;-69
2023/09/23 05:53:10;;;;;;;48.03;24.52;;;11.70;99.90;;;;;;5014726;28;20042;-68
2023/09/23 05:55:35;;;;;;;50.03;23.88;;;11.80;99.90;;;;;;4981879;28;20073;-68
2023/09/23 05:58:01;;;;;;;43.13;22.17;;;11.80;99.90;;;;;;4972961;28;20125;-69
2023/09/23 06:00:26;;;;;;;48.22;23.88;;;11.80;99.90;;;;;;4994315;28;20128;-69
2023/09/23 06:02:52;;;;;;;43.75;22.33;;;11.80;99.90;;;;;;4980623;28;20412;-68
2023/09/23 06:05:18;;;;;;;45.42;23.20;;;11.80;99.90;;;;;;4976341;28;20050;-69
2023/09/23 06:07:45;;;;;;;48.45;23.63;;;11.80;99.90;;;;;;4970573;28;20038;-69
2023/09/23 06:10:11;;;;;;;50.83;23.35;;;11.80;99.90;;;;;;5002936;28;20125;-69
2023/09/23 06:12:36;;;;;;;50.50;25.13;;;11.90;99.90;;;;;;5006370;28;20168;-68
2023/09/23 06:15:05;;;;;;;48.58;23.20;;;11.90;99.90;;;;;;4987787;28;20046;-68
2023/09/23 06:17:32;;;;;;;52.10;24.00;;;12.00;99.90;;;;;;5011808;28;20042;-68
2023/09/23 06:19:58;;;;;;;47.08;23.55;;;12.00;99.90;;;;;;5011921;28;20092;-68
2023/09/23 06:22:25;;;;;;;41.58;21.00;;;12.10;99.90;;;;;;4993975;28;20599;-69
2023/09/23 06:24:51;;;;;;;43.78;22.13;;;12.00;99.90;;;;;;5012881;28;20125;-69
2023/09/23 06:27:17;;;;;;;45.05;23.48;;;12.00;99.90;;;;;;4996066;28;20121;-69
2023/09/23 06:29:44;;;;;;;44.28;21.65;;;12.00;99.90;;;;;;4967286;28;20576;-69
2023/09/23 06:32:09;;;;;;;45.47;22.05;;;12.00;99.90;;;;;;4995152;28;20050;-69
2023/09/23 06:34:36;;;;;;;45.90;23.30;;;12.10;99.90;;;;;;4983112;28;20052;-69
2023/09/23 06:37:01;;;;;;;44.78;22.63;;;12.00;99.90;;;;;;4980349;28;20045;-69
2023/09/23 06:39:27;;;;;;;42.75;22.45;;;12.10;99.90;;;;;;4999998;28;20048;-69
2023/09/23 06:41:53;;;;;;;50.40;24.50;;;12.10;99.90;;;;;;5005168;28;20041;-69
2023/09/23 06:44:18;;;;;;;49.58;24.90;;;12.10;99.90;;;;;;4992141;28;20523;-69
2023/09/23 06:46:44;;;;;;;40.20;20.83;;;12.20;99.90;;;;;;4984806;28;20045;-69
2023/09/23 06:49:09;;;;;;;47.50;20.73;;;12.20;99.90;;;;;;5004023;28;20373;-69
2023/09/23 06:51:35;;;;;;;45.83;22.98;;;12.30;99.90;;;;;;4995722;28;20081;-69
2023/09/23 06:54:00;;;;;;;46.47;24.52;;;12.40;99.90;;;;;;5008140;28;20160;-69
2023/09/23 06:56:26;;;;;;;43.20;22.70;;;12.40;99.90;;;;;;5003369;28;20455;-69
2023/09/23 06:58:52;;;;;;;47.20;22.80;;;12.50;99.90;;;;;;4991041;28;20041;-69
2023/09/23 07:01:17;;;;;;;44.03;23.52;;;12.50;99.90;;;;;;4995738;28;20050;-69
2023/09/23 07:03:43;;;;;;;48.90;22.13;;;12.60;99.90;;;;;;5004459;28;20402;-69
2023/09/23 07:06:09;;;;;;;46.95;23.17;;;12.60;99.90;;;;;;5004471;28;20397;-69
2023/09/23 07:08:34;;;;;;;47.28;23.63;;;12.70;99.90;;;;;;4995161;28;20069;-69
2023/09/23 07:11:00;;;;;;;43.28;21.38;;;12.80;99.90;;;;;;4984678;28;20050;-69
2023/09/23 07:13:26;;;;;;;43.75;23.08;;;12.90;99.90;;;;;;4980020;28;20121;-69
2023/09/23 07:15:51;;;;;;;41.58;21.38;;;12.90;99.90;;;;;;4970492;28;20656;-69
2023/09/23 07:18:17;;;;;;;43.25;21.30;;;13.00;99.90;;;;;;4973081;28;20046;-69
2023/09/23 07:20:43;;;;;;;41.15;22.15;;;13.00;99.90;;;;;;4995996;28;20046;-69
2023/09/23 07:23:08;;;;;;;40.30;21.08;;;13.10;99.90;;;;;;4981880;28;20492;-69
2023/09/23 07:25:38;;;;;;;41.97;21.02;;;13.20;99.90;;;;;;5003658;28;20046;-69
2023/09/23 07:28:06;;;;;;;39.97;21.50;;;13.40;99.90;;;;;;4990015;28;20136;-69
2023/09/23 07:30:36;;;;;;;39.97;22.08;;;13.40;99.90;;;;;;4995076;28;20137;-69
2023/09/23 07:33:02;;;;;;;35.97;19.55;;;13.50;99.90;;;;;;4998721;28;20038;-69
2023/09/23 07:35:34;;;;;;;37.50;20.83;;;13.50;99.90;;;;;;4978813;28;20040;-69
2023/09/23 07:38:00;;;;;;;35.97;19.80;;;13.50;99.90;;;;;;5007879;28;20038;-69
2023/09/23 07:40:27;;;;;;;34.30;18.35;;;13.60;99.90;;;;;;5011312;28;20088;-69
2023/09/23 07:42:53;;;;;;;37.13;20.02;;;13.80;99.90;;;;;;4972687;28;20053;-69
2023/09/23 07:45:18;;;;;;;33.47;18.63;;;13.90;99.90;;;;;;4990299;28;20037;-69
2023/09/23 07:47:44;;;;;;;30.05;17.45;;;14.00;99.90;;;;;;4997680;28;20053;-69
2023/09/23 07:50:09;;;;;;;33.10;19.25;;;14.10;99.90;;;;;;4984393;28;20056;-68
2023/09/23 07:52:35;;;;;;;32.28;18.92;;;14.20;99.90;;;;;;4979781;28;20477;-68
2023/09/23 07:55:02;;;;;;;31.40;17.85;;;14.20;99.90;;;;;;5021210;23;20453;-67
2023/09/23 07:57:27;;;;;;;30.13;18.05;;;14.20;99.90;;;;;;5029712;28;20538;-67
2023/09/23 07:59:53;;;;;;;29.23;17.98;;;14.20;99.90;;;;;;5032085;28;20128;-67
2023/09/23 08:02:18;;;;;;;28.70;16.88;;;14.30;99.90;;;;;;5021959;28;20541;-67
2023/09/23 08:04:44;;;;;;;30.33;17.63;;;14.40;99.90;;;;;;5024793;28;20042;-67
2023/09/23 08:07:11;;;;;;;26.30;16.73;;;14.40;99.90;;;;;;5002192;28;20037;-67
2023/09/23 08:09:37;;;;;;;25.75;16.90;;;14.60;99.90;;;;;;5018171;28;20046;-67
2023/09/23 08:12:03;;;;;;;26.38;17.05;;;14.50;99.90;;;;;;5021573;28;20088;-67
2023/09/23 08:14:29;;;;;;;27.08;16.98;;;14.60;99.90;;;;;;5031521;28;20399;-67
2023/09/23 08:16:55;;;;;;;26.58;17.20;;;14.50;99.90;;;;;;5029040;28;20064;-67
2023/09/23 08:19:21;;;;;;;27.33;17.15;;;14.60;99.90;;;;;;5019433;28;20053;-67
2023/09/23 08:21:47;;;;;;;26.55;18.08;;;14.60;99.90;;;;;;5031551;28;20052;-67
2023/09/23 08:24:12;;;;;;;23.60;15.70;;;14.60;99.90;;;;;;5030643;28;20038;-67
2023/09/23 08:26:38;;;;;;;27.63;17.58;;;14.60;99.90;;;;;;5023136;28;20044;-67
2023/09/23 08:29:05;;;;;;;23.58;15.45;;;14.50;99.90;;;;;;5012894;28;20514;-67
2023/09/23 08:31:30;;;;;;;23.20;16.27;;;14.50;99.90;;;;;;5031213;28;20049;-67
2023/09/23 08:33:56;;;;;;;23.58;16.02;;;14.50;99.90;;;;;;5016352;28;20415;-67
2023/09/23 08:36:21;;;;;;;26.00;15.68;;;14.50;99.90;;;;;;5013219;28;20052;-67
2023/09/23 08:38:47;;;;;;;23.27;15.82;;;14.60;99.90;;;;;;5011494;28;20049;-67
2023/09/23 08:41:16;;;;;;;27.38;16.80;;;14.80;99.90;;;;;;5026640;28;20041;-67
2023/09/23 08:43:43;;;;;;;23.00;15.95;;;14.90;99.90;;;;;;5005095;28;20046;-67
2023/09/23 08:46:11;;;;;;;25.30;15.00;;;14.90;99.90;;;;;;5025267;28;20560;-67
2023/09/23 08:48:38;;;;;;;24.00;15.25;;;15.00;99.90;;;;;;5028867;28;20033;-67
2023/09/23 08:51:06;;;;;;;22.23;15.90;;;15.00;99.90;;;;;;5030061;28;20047;-67
2023/09/23 08:53:38;;;;;;;19.98;15.40;;;15.10;99.90;;;;;;5023032;28;20036;-67
2023/09/23 08:56:06;;;;;;;19.40;13.63;;;15.10;99.90;;;;;;5022365;28;20029;-67
2023/09/23 08:58:32;;;;;;;21.25;14.80;;;15.30;99.90;;;;;;5024543;28;21730;-67
2023/09/23 09:00:58;;;;;;;19.67;13.85;;;15.40;99.90;;;;;;5016357;28;20530;-67
2023/09/23 09:03:24;;;;;;;23.58;15.05;;;15.40;99.90;;;;;;5020942;28;20061;-67
2023/09/23 09:05:49;;;;;;;18.85;13.93;;;15.50;99.90;;;;;;5006747;28;20049;-67
2023/09/23 09:08:16;;;;;;;21.23;14.40;;;15.50;99.90;;;;;;5029847;28;20547;-67
2023/09/23 09:10:41;;;;;;;19.13;14.80;;;15.50;99.90;;;;;;5002027;28;20054;-67
2023/09/23 09:13:07;;;;;;;20.65;14.13;;;15.50;99.90;;;;;;5027252;28;20039;-67
2023/09/23 09:15:35;;;;;;;22.42;14.25;;;15.60;99.90;;;;;;5023024;28;20042;-67
2023/09/23 09:18:02;;;;;;;20.13;14.18;;;15.60;99.90;;;;;;5027578;28;20045;-67
2023/09/23 09:20:28;;;;;;;16.20;13.07;;;15.80;99.90;;;;;;5009235;28;20042;-67
2023/09/23 09:22:53;;;;;;;22.35;14.10;;;15.80;99.90;;;;;;5015893;28;20492;-67
2023/09/23 09:25:22;;;;;;;19.55;13.80;;;15.90;99.90;;;;;;5029056;28;20033;-67
2023/09/23 09:27:49;;;;;;;19.52;14.55;;;15.90;99.90;;;;;;5011620;28;20045;-67
2023/09/23 09:30:15;;;;;;;18.80;14.20;;;15.90;99.90;;;;;;5005431;28;20038;-67
2023/09/23 09:32:43;;;;;;;17.45;13.05;;;15.80;99.90;;;;;;5009314;28;20080;-67
2023/09/23 09:35:18;;;;;;;17.00;11.45;;;15.80;99.90;;;;;;5024248;28;20041;-67
2023/09/23 09:37:48;;;;;;;15.88;11.30;;;15.80;99.90;;;;;;5032200;28;20034;-67
2023/09/23 09:40:18;;;;;;;15.02;10.40;;;15.80;99.90;;;;;;5006097;28;20041;-67
2023/09/23 09:42:54;;;;;;;13.98;10.82;;;15.80;99.90;;;;;;5020774;28;20046;-67
2023/09/23 09:45:21;;;;;;;15.25;11.13;;;15.90;99.90;;;;;;5032861;28;20041;-67
2023/09/23 09:47:48;;;;;;;14.02;11.45;;;16.00;99.90;;;;;;5025500;28;20034;-67
2023/09/23 09:50:15;;;;;;;17.92;11.82;;;16.00;99.90;;;;;;5028344;28;20507;-67
2023/09/23 09:52:43;;;;;;;15.80;11.38;;;16.10;99.90;;;;;;5033843;28;20073;-67
2023/09/23 09:55:11;;;;;;;13.20;10.27;;;16.20;99.90;;;;;;5015430;28;20045;-67
2023/09/23 09:57:36;;;;;;;13.98;9.50;;;16.30;99.90;;;;;;5025517;28;20037;-67
2023/09/23 10:00:15;;;;;;;13.50;9.93;;;16.20;99.90;;;;;;5013230;28;20492;-67
2023/09/23 10:02:42;;;;;;;15.93;9.90;;;16.20;99.90;;;;;;5009326;28;20053;-67
2023/09/23 10:05:15;;;;;;;11.55;8.38;;;16.20;99.90;;;;;;5010098;28;20037;-68
2023/09/23 10:07:54;;;;;;;13.93;9.15;;;16.40;99.90;;;;;;5029393;28;20037;-67
2023/09/23 10:10:31;;;;;;;11.68;9.20;;;16.50;99.90;;;;;;4996193;28;20468;-68
2023/09/23 10:13:05;;;;;;;13.45;9.80;;;16.50;99.90;;;;;;5012994;28;20447;-67
2023/09/23 10:15:36;;;;;;;15.25;8.77;;;16.40;99.90;;;;;;5016303;28;20081;-67
2023/09/23 10:18:02;;;;;;;12.27;8.90;;;16.50;99.90;;;;;;5031584;28;20052;-67
2023/09/23 10:20:33;;;;;;;12.43;9.02;;;16.50;99.90;;;;;;5032462;28;20041;-67
2023/09/23 10:22:59;;;;;;;11.80;9.20;;;16.50;99.90;;;;;;5018546;28;20038;-68
2023/09/23 10:25:42;;;;;;;11.80;8.15;;;16.70;99.90;;;;;;5028775;28;20236;-68
2023/09/23 10:28:24;;;;;;;10.18;7.95;;;16.70;99.90;;;;;;5032458;28;20143;-67
2023/09/23 10:31:04;;;;;;;14.15;7.72;;;16.70;99.90;;;;;;5014672;28;20514;-67
2023/09/23 10:33:32;;;;;;;10.30;7.00;;;16.70;99.90;;;;;;5020489;28;20042;-67
2023/09/23 10:35:58;;;;;;;12.27;7.20;;;16.70;99.90;;;;;;5028118;28;20041;-67
2023/09/23 10:38:35;;;;;;;10.15;7.38;;;16.60;99.90;;;;;;5029267;28;20116;-67
2023/09/23 10:41:01;;;;;;;10.63;6.95;;;16.60;99.90;;;;;;5027759;28;20136;-67
2023/09/23 10:43:27;;;;;;;10.05;7.10;;;16.60;99.90;;;;;;5012547;28;20077;-68
2023/09/23 10:45:54;;;;;;;10.05;6.50;;;16.50;99.90;;;;;;5011870;28;20683;-67
2023/09/23 10:48:20;;;;;;;8.68;6.38;;;16.60;99.90;;;;;;5012632;28;20143;-67
2023/09/23 10:50:46;;;;;;;8.07;5.85;;;16.60;99.90;;;;;;5027037;28;20048;-67
2023/09/23 10:53:13;;;;;;;9.93;7.32;;;16.70;99.90;;;;;;5031967;28;20113;-67
2023/09/23 10:55:39;;;;;;;8.88;6.30;;;16.80;99.90;;;;;;4988707;28;1021754;-67
2023/09/23 10:58:06;;;;;;;11.52;6.60;;;16.90;99.90;;;;;;5012365;28;20041;-67
2023/09/23 11:00:33;;;;;;;9.77;6.35;;;17.10;99.90;;;;;;5013355;28;20030;-67
2023/09/23 11:03:14;;;;;;;9.75;6.80;;;17.10;99.90;;;;;;5011975;28;20038;-67
2023/09/23 11:05:39;;;;;;;11.52;6.57;;;17.00;99.90;;;;;;5012710;28;20077;-67
2023/09/23 11:08:07;;;;;;;8.43;6.60;;;17.00;99.90;;;;;;5012581;28;20098;-67
2023/09/23 11:10:36;;;;;;;9.98;6.90;;;17.00;99.90;;;;;;5011434;28;20054;-67
2023/09/23 11:13:08;;;;;;;9.27;6.15;;;17.10;99.90;;;;;;5019006;28;20080;-67
2023/09/23 11:15:44;;;;;;;10.80;7.35;;;16.90;99.90;;;;;;5029052;28;20491;-68
2023/09/23 11:18:12;;;;;;;9.07;6.80;;;16.90;99.90;;;;;;5019467;28;20037;-67
2023/09/23 11:20:41;;;;;;;10.88;7.13;;;16.80;99.90;;;;;;5022828;28;20037;-67
2023/09/23 11:23:07;;;;;;;11.25;8.10;;;16.60;99.90;;;;;;5032515;28;20507;-68
2023/09/23 11:25:37;;;;;;;11.27;7.50;;;16.70;99.90;;;;;;5025210;28;20471;-67
2023/09/23 11:28:04;;;;;;;11.25;7.63;;;16.60;99.90;;;;;;5030206;28;20048;-67
2023/09/23 11:30:29;;;;;;;11.93;8.77;;;16.60;99.90;;;;;;5017756;28;20025;-67
2023/09/23 11:32:56;;;;;;;10.93;7.78;;;16.50;99.90;;;;;;5009902;28;20092;-67
2023/09/23 11:35:25;;;;;;;13.30;8.07;;;16.60;99.90;;;;;;5014171;28;20081;-67
2023/09/23 11:37:53;;;;;;;9.68;7.43;;;16.90;99.90;;;;;;5032439;28;20041;-67
2023/09/23 11:40:19;;;;;;;8.80;6.35;;;17.00;99.90;;;;;;5020986;28;20087;-67
2023/09/23 11:42:45;;;;;;;8.05;6.00;;;17.20;99.90;;;;;;5020283;28;20038;-67
2023/09/23 11:45:12;;;;;;;9.57;7.00;;;17.30;99.90;;;;;;5026673;28;20056;-68
2023/09/23 11:47:38;;;;;;;10.95;6.78;;;17.60;99.90;;;;;;5017600;28;20139;-67
2023/09/23 11:50:06;;;;;;;6.93;5.13;;;17.60;99.90;;;;;;5023767;28;20067;-67
2023/09/23 11:52:34;;;;;;;7.22;5.30;;;17.70;99.90;;;;;;5031083;28;20052;-67
2023/09/23 11:55:00;;;;;;;9.82;5.60;;;17.70;99.90;;;;;;5030510;28;20120;-67
2023/09/23 11:57:26;;;;;;;6.72;5.07;;;17.90;99.90;;;;;;5016890;28;20025;-66
2023/09/23 11:59:52;;;;;;;6.82;5.20;;;18.00;99.90;;;;;;5014959;28;20398;-67
2023/09/23 12:02:21;;;;;;;7.18;4.85;;;18.00;99.90;;;;;;5011926;28;20096;-67
2023/09/23 12:04:47;;;;;;;8.48;5.43;;;18.10;99.90;;;;;;5027743;28;20095;-67
2023/09/23 12:07:17;;;;;;;5.60;4.60;;;18.20;99.90;;;;;;5019598;28;20042;-67
2023/09/23 12:09:43;;;;;;;6.70;4.07;;;18.10;99.90;;;;;;5031574;28;20553;-67
2023/09/23 12:12:12;;;;;;;8.70;4.80;;;18.20;99.90;;;;;;5031908;28;20077;-67
2023/09/23 12:14:43;;;;;;;7.20;4.38;;;18.20;99.90;;;;;;5019155;28;20420;-68
2023/09/23 12:17:16;;;;;;;;;;;18.20;99.90;;;;;;5011348;28;20396;-67
2023/09/23 12:19:45;;;;;;;7.78;4.05;;;18.10;99.90;;;;;;5021907;28;19921;-68
2023/09/23 12:22:12;;;;;;;6.97;4.35;;;18.10;99.90;;;;;;5027479;28;20622;-66
2023/09/23 12:24:44;;;;;;;8.80;5.20;;;18.10;99.90;;;;;;5012800;28;20037;-67
2023/09/23 12:27:10;;;;;;;6.68;4.80;;;18.10;99.90;;;;;;5010799;28;20037;-68
2023/09/23 12:29:35;;;;;;;7.82;5.28;;;18.20;99.90;;;;;;4992193;28;20056;-67
2023/09/23 12:32:02;;;;;;;6.07;5.15;;;18.00;99.90;;;;;;5012052;28;20041;-69
2023/09/23 12:34:28;;;;;;;5.53;4.70;;;18.10;99.90;;;;;;5018471;28;20562;-67